createdAt,value
2023-03-02T00:01:10.457Z,7.22
2023-03-02T00:03:39.978Z,7.75
2023-03-02T00:06:08.942Z,6.93
2023-03-02T00:08:37.606Z,7.72
2023-03-02T00:11:05.476Z,7.57
2023-03-02T00:13:34.372Z,7.53
2023-03-02T00:16:01.690Z,7.78
2023-03-02T00:18:28.720Z,7.22
2023-03-02T00:20:55.780Z,7.40
2023-03-02T00:23:22.791Z,7.10
2023-03-02T00:25:50.311Z,7.20
2023-03-02T00:28:17.303Z,7.55
2023-03-02T00:30:44.256Z,7.88
2023-03-02T00:33:11.359Z,8.25
2023-03-02T00:35:40.097Z,8.20
2023-03-02T00:38:07.516Z,7.32
2023-03-02T00:40:36.039Z,8.30
2023-03-02T00:43:03.192Z,7.32
2023-03-02T00:45:30.643Z,8.55
2023-03-02T00:47:58.623Z,7.53
2023-03-02T00:50:25.643Z,7.50
2023-03-02T00:52:52.958Z,7.63
2023-03-02T00:55:20.078Z,8.32
2023-03-02T00:57:55.116Z,8.38
2023-03-02T01:00:28.800Z,8.32
2023-03-02T01:02:59.994Z,8.20
2023-03-02T01:05:27.473Z,7.10
2023-03-02T01:07:54.767Z,7.72
2023-03-02T01:10:21.754Z,8.27
2023-03-02T01:12:48.742Z,8.07
2023-03-02T01:15:16.306Z,8.15
2023-03-02T01:17:44.324Z,8.13
2023-03-02T01:20:12.339Z,8.00
2023-03-02T01:22:39.516Z,7.57
2023-03-02T01:25:07.083Z,7.78
2023-03-02T01:27:34.080Z,7.65
2023-03-02T01:30:01.310Z,7.70
2023-03-02T01:32:28.384Z,8.65
2023-03-02T01:34:55.901Z,8.02
2023-03-02T01:37:23.428Z,6.72
2023-03-02T01:39:50.943Z,7.45
2023-03-02T01:42:18.821Z,8.05
2023-03-02T01:44:49.234Z,7.45
2023-03-02T01:47:24.549Z,7.80
2023-03-02T01:50:24.836Z,7.95
2023-03-02T01:52:56.774Z,8.30
2023-03-02T01:55:29.146Z,7.63
2023-03-02T01:57:58.173Z,8.05
2023-03-02T02:00:29.038Z,7.60
2023-03-02T02:03:09.256Z,8.40
2023-03-02T02:05:43.040Z,8.10
2023-03-02T02:08:10.756Z,7.72
2023-03-02T02:10:39.892Z,7.03
2023-03-02T02:13:11.140Z,7.53
2023-03-02T02:15:39.385Z,7.82
2023-03-02T02:18:06.656Z,8.27
2023-03-02T02:20:36.928Z,7.90
2023-03-02T02:23:17.741Z,7.88
2023-03-02T02:25:55.536Z,7.57
2023-03-02T02:28:29.243Z,7.55
2023-03-02T02:31:23.176Z,7.88
2023-03-02T02:33:57.719Z,7.90
2023-03-02T02:36:33.911Z,7.33
2023-03-02T02:39:08.739Z,7.72
2023-03-02T02:41:39.325Z,8.23
2023-03-02T02:44:07.315Z,7.93
2023-03-02T02:46:35.017Z,8.35
2023-03-02T02:49:04.387Z,7.43
2023-03-02T02:51:33.470Z,8.57
2023-03-02T02:54:02.713Z,8.35
2023-03-02T02:56:37.698Z,8.15
2023-03-02T02:59:19.640Z,8.50
2023-03-02T03:01:48.600Z,8.10
2023-03-02T03:04:20.540Z,7.90
2023-03-02T03:07:00.218Z,8.30
2023-03-02T03:09:28.610Z,8.57
2023-03-02T03:12:04.363Z,8.73
2023-03-02T03:14:39.501Z,9.18
2023-03-02T03:17:12.614Z,9.98
2023-03-02T03:19:47.272Z,10.95
2023-03-02T03:22:16.608Z,10.52
2023-03-02T03:24:46.315Z,12.05
2023-03-02T03:27:16.617Z,12.57
2023-03-02T03:29:50.641Z,11.73
2023-03-02T03:32:21.076Z,12.40
2023-03-02T03:34:50.844Z,13.30
2023-03-02T03:37:28.103Z,13.57
2023-03-02T03:39:55.509Z,15.43
2023-03-02T03:42:24.250Z,14.60
2023-03-02T03:44:52.773Z,15.68
2023-03-02T03:47:20.968Z,16.08
2023-03-02T03:49:49.399Z,16.17
2023-03-02T03:52:16.766Z,17.67
2023-03-02T03:54:43.967Z,19.17
2023-03-02T03:57:12.438Z,20.38
2023-03-02T03:59:40.328Z,19.23
2023-03-02T04:02:08.439Z,20.85
2023-03-02T04:04:39.370Z,22.08
2023-03-02T04:07:14.756Z,21.88
2023-03-02T04:09:43.579Z,24.85
2023-03-02T04:12:13.437Z,24.20
2023-03-02T04:14:45.753Z,24.35
2023-03-02T04:17:13.015Z,24.52
2023-03-02T04:19:43.319Z,25.77
2023-03-02T04:22:10.433Z,27.60
2023-03-02T04:24:37.495Z,28.15
2023-03-02T04:27:05.077Z,28.13
2023-03-02T04:29:33.874Z,26.85
2023-03-02T04:32:03.632Z,28.13
2023-03-02T04:34:32.594Z,27.65
2023-03-02T04:37:00.281Z,30.00
2023-03-02T04:39:27.635Z,28.33
2023-03-02T04:41:55.163Z,29.13
2023-03-02T04:44:23.018Z,30.77
2023-03-02T04:46:50.693Z,30.60
2023-03-02T04:49:19.346Z,32.42
2023-03-02T04:51:48.491Z,32.38
2023-03-02T04:54:21.804Z,31.35
2023-03-02T04:56:50.835Z,31.75
2023-03-02T04:59:20.293Z,32.60
2023-03-02T05:01:47.973Z,34.65
2023-03-02T05:04:15.344Z,32.33
2023-03-02T05:06:42.446Z,32.83
2023-03-02T05:09:09.626Z,32.30
2023-03-02T05:11:38.225Z,33.35
2023-03-02T05:14:07.908Z,35.78
2023-03-02T05:16:37.422Z,32.88
2023-03-02T05:19:06.309Z,33.03
2023-03-02T05:21:33.441Z,33.10
2023-03-02T05:24:00.534Z,34.30
2023-03-02T05:26:28.007Z,33.53
2023-03-02T05:28:56.078Z,33.42
2023-03-02T05:31:44.306Z,34.55
2023-03-02T05:34:14.191Z,33.10
2023-03-02T05:36:41.281Z,33.85
2023-03-02T05:39:08.878Z,32.40
2023-03-02T05:41:36.991Z,32.00
2023-03-02T05:44:04.719Z,31.67
2023-03-02T05:46:32.429Z,32.88
2023-03-02T05:48:59.776Z,32.42
2023-03-02T05:51:27.863Z,32.10
2023-03-02T05:53:54.984Z,32.13
2023-03-02T05:56:22.666Z,31.38
2023-03-02T05:58:49.964Z,32.25
2023-03-02T06:01:17.121Z,30.95
2023-03-02T06:03:44.029Z,31.48
2023-03-02T06:06:14.450Z,30.50
2023-03-02T06:08:43.599Z,32.42
2023-03-02T06:11:11.565Z,32.45
2023-03-02T06:13:39.570Z,30.20
2023-03-02T06:16:07.243Z,31.27
2023-03-02T06:18:35.757Z,30.92
2023-03-02T06:21:03.347Z,30.95
2023-03-02T06:23:30.780Z,29.65
2023-03-02T06:25:58.335Z,32.35
2023-03-02T06:28:25.959Z,31.90
2023-03-02T06:30:52.886Z,29.55
2023-03-02T06:33:21.636Z,30.33
2023-03-02T06:35:49.457Z,30.85
2023-03-02T06:38:17.413Z,32.50
2023-03-02T06:40:44.717Z,30.38
2023-03-02T06:43:11.917Z,30.83
2023-03-02T06:45:39.263Z,30.92
2023-03-02T06:48:07.463Z,31.00
2023-03-02T06:50:35.025Z,30.23
2023-03-02T06:53:02.021Z,30.83
2023-03-02T06:55:29.009Z,30.05
2023-03-02T06:57:56.020Z,29.90
2023-03-02T07:00:28.279Z,30.92
2023-03-02T07:02:56.491Z,28.02
2023-03-02T07:05:24.701Z,29.48
2023-03-02T07:07:52.125Z,29.73
2023-03-02T07:10:19.354Z,28.73
2023-03-02T07:12:46.316Z,28.48
2023-03-02T07:15:14.516Z,29.67
2023-03-02T07:17:44.621Z,27.88
2023-03-02T07:20:17.475Z,29.73
2023-03-02T07:22:45.482Z,28.63
2023-03-02T07:25:13.384Z,29.27
2023-03-02T07:27:40.956Z,28.17
2023-03-02T07:30:09.179Z,28.17
2023-03-02T07:32:36.358Z,29.98
2023-03-02T07:35:03.467Z,29.67
2023-03-02T07:37:30.552Z,29.52
2023-03-02T07:40:00.293Z,29.35
2023-03-02T07:42:27.784Z,29.73
2023-03-02T07:44:57.858Z,29.20
2023-03-02T07:47:25.357Z,29.17
2023-03-02T07:49:52.369Z,28.98
2023-03-02T07:52:19.408Z,30.23
2023-03-02T07:54:46.626Z,29.88
2023-03-02T07:57:16.625Z,30.23
2023-03-02T07:59:44.367Z,28.08
2023-03-02T08:02:17.311Z,29.40
2023-03-02T08:04:44.403Z,27.15
2023-03-02T08:07:11.418Z,29.90
2023-03-02T08:09:40.047Z,29.60
2023-03-02T08:12:06.973Z,28.67
2023-03-02T08:14:34.090Z,28.17
2023-03-02T08:17:02.453Z,28.02
2023-03-02T08:19:29.534Z,30.10
2023-03-02T08:21:56.616Z,28.02
2023-03-02T08:24:23.743Z,29.63
2023-03-02T08:26:50.784Z,29.75
2023-03-02T08:29:18.042Z,27.88
2023-03-02T08:31:45.103Z,27.77
2023-03-02T08:34:12.292Z,28.40
2023-03-02T08:36:40.444Z,28.55
2023-03-02T08:39:07.440Z,29.15
2023-03-02T08:41:35.652Z,28.00
2023-03-02T08:44:03.004Z,28.42
2023-03-02T08:46:31.242Z,27.92
2023-03-02T08:48:58.528Z,27.50
2023-03-02T08:51:26.368Z,27.70
2023-03-02T08:53:57.920Z,27.70
2023-03-02T08:56:30.219Z,27.08
2023-03-02T08:59:03.420Z,26.77
2023-03-02T09:01:34.216Z,26.42
2023-03-02T09:04:02.617Z,27.40
2023-03-02T09:06:31.633Z,28.08
2023-03-02T09:08:59.308Z,26.15
2023-03-02T09:11:26.728Z,28.15
2023-03-02T09:13:54.687Z,24.73
2023-03-02T09:16:22.159Z,26.80
2023-03-02T09:18:49.210Z,26.23
2023-03-02T09:21:16.271Z,25.05
2023-03-02T09:23:43.580Z,23.70
2023-03-02T09:26:11.004Z,22.50
2023-03-02T09:28:39.249Z,22.70
2023-03-02T09:31:07.735Z,21.90
2023-03-02T09:33:34.983Z,23.25
2023-03-02T09:36:10.037Z,22.55
2023-03-02T09:38:37.239Z,22.42
2023-03-02T09:41:19.924Z,21.88
2023-03-02T09:44:02.613Z,22.40
2023-03-02T09:46:46.953Z,19.80
2023-03-02T09:49:26.130Z,20.35
2023-03-02T09:52:21.130Z,19.50
2023-03-02T09:54:48.409Z,20.50
2023-03-02T09:57:26.644Z,21.08
2023-03-02T10:00:19.990Z,19.67
2023-03-02T10:03:27.580Z,18.48
2023-03-02T10:05:56.224Z,19.55
2023-03-02T10:08:29.937Z,19.23
2023-03-02T10:11:15.929Z,19.23
2023-03-02T10:13:49.581Z,19.65
2023-03-02T10:16:31.111Z,19.25
2023-03-02T10:19:41.762Z,19.60
2023-03-02T10:22:44.505Z,18.95
2023-03-02T10:25:29.717Z,19.83
2023-03-02T10:28:11.267Z,21.02
2023-03-02T10:30:40.054Z,19.67
2023-03-02T10:33:16.329Z,19.27
2023-03-02T10:35:51.167Z,20.05
2023-03-02T10:38:21.319Z,19.25
2023-03-02T10:41:00.321Z,20.65
2023-03-02T10:43:45.586Z,22.58
2023-03-02T10:46:13.901Z,20.15
2023-03-02T10:48:52.846Z,19.20
2023-03-02T10:51:25.998Z,18.92
2023-03-02T10:54:07.963Z,19.52
2023-03-02T10:56:35.491Z,18.63
2023-03-02T10:59:31.241Z,19.80
2023-03-02T11:02:23.691Z,19.92
2023-03-02T11:04:57.429Z,19.92
2023-03-02T11:07:27.878Z,19.08
2023-03-02T11:09:57.923Z,19.17
2023-03-02T11:12:24.981Z,19.42
2023-03-02T11:15:20.177Z,18.70
2023-03-02T11:17:52.259Z,18.20
2023-03-02T11:20:31.298Z,18.67
2023-03-02T11:23:15.120Z,19.10
2023-03-02T11:25:59.270Z,17.42
2023-03-02T11:28:36.613Z,17.23
2023-03-02T11:31:10.858Z,18.95
2023-03-02T11:34:07.822Z,17.20
2023-03-02T11:37:03.850Z,18.10
2023-03-02T11:39:55.427Z,17.30
2023-03-02T11:42:36.929Z,18.42
2023-03-02T11:45:39.846Z,19.00
2023-03-02T11:48:09.317Z,18.88
2023-03-02T11:50:55.370Z,18.65
2023-03-02T11:53:27.208Z,16.65
2023-03-02T11:55:54.303Z,17.77
2023-03-02T11:58:28.462Z,18.35
2023-03-02T12:00:56.776Z,17.98
2023-03-02T12:03:45.978Z,17.48
2023-03-02T12:06:21.954Z,18.42
2023-03-02T12:08:51.806Z,17.52
2023-03-02T12:11:19.045Z,17.83
2023-03-02T12:14:07.423Z,18.50
2023-03-02T12:16:41.123Z,17.20
2023-03-02T12:19:28.927Z,17.80
2023-03-02T12:21:56.120Z,16.60
2023-03-02T12:24:34.731Z,17.60
2023-03-02T12:27:15.444Z,16.50
2023-03-02T12:29:51.529Z,16.30
2023-03-02T12:32:32.045Z,15.57
2023-03-02T12:35:08.417Z,16.60
2023-03-02T12:38:01.811Z,16.77
2023-03-02T12:41:06.872Z,15.43
2023-03-02T12:43:35.264Z,15.15
2023-03-02T12:46:08.221Z,16.83
2023-03-02T12:48:48.984Z,17.48
2023-03-02T12:51:25.216Z,18.42
2023-03-02T12:54:14.563Z,17.85
2023-03-02T12:56:42.072Z,19.42
2023-03-02T12:59:25.165Z,18.42
2023-03-02T13:01:52.540Z,18.67
2023-03-02T13:04:28.551Z,18.77
2023-03-02T13:06:55.976Z,17.98
2023-03-02T13:09:23.870Z,18.25
2023-03-02T13:11:54.862Z,16.45
2023-03-02T13:14:29.351Z,16.60
2023-03-02T13:17:04.942Z,16.10
2023-03-02T13:19:33.211Z,17.67
2023-03-02T13:22:00.928Z,17.83
2023-03-02T13:24:49.535Z,17.98
2023-03-02T13:27:22.411Z,17.55
2023-03-02T13:29:50.116Z,16.15
2023-03-02T13:32:22.480Z,16.42
2023-03-02T13:35:00.620Z,16.48
2023-03-02T13:37:39.356Z,16.80
2023-03-02T13:40:24.720Z,17.75
2023-03-02T13:42:51.809Z,18.33
2023-03-02T13:45:28.387Z,16.25
2023-03-02T13:47:57.173Z,17.38
2023-03-02T13:50:32.329Z,15.70
2023-03-02T13:53:05.552Z,14.93
2023-03-02T13:55:33.434Z,14.80
2023-03-02T13:58:01.063Z,15.05
2023-03-02T14:00:33.419Z,14.18
2023-03-02T14:03:00.519Z,17.23
2023-03-02T14:05:33.444Z,17.52
2023-03-02T14:08:01.329Z,16.33
2023-03-02T14:10:28.756Z,15.85
2023-03-02T14:13:04.516Z,16.63
2023-03-02T14:15:31.939Z,15.73
2023-03-02T14:17:58.967Z,15.23
2023-03-02T14:20:26.101Z,14.23
2023-03-02T14:22:53.298Z,17.33
2023-03-02T14:25:20.872Z,18.13
2023-03-02T14:27:48.004Z,18.98
2023-03-02T14:30:20.370Z,21.35
2023-03-02T14:32:47.606Z,22.52
2023-03-02T14:35:16.755Z,19.45
2023-03-02T14:37:48.309Z,20.02
2023-03-02T14:40:25.849Z,21.38
2023-03-02T14:42:53.376Z,19.25
2023-03-02T14:45:21.857Z,20.38
2023-03-02T14:47:49.189Z,20.77
2023-03-02T14:50:21.575Z,21.65
2023-03-02T14:52:52.459Z,22.17
2023-03-02T14:55:28.530Z,20.70
2023-03-02T14:58:10.593Z,21.42
2023-03-02T15:00:37.626Z,23.50
2023-03-02T15:03:04.555Z,23.58
2023-03-02T15:05:32.368Z,23.92
2023-03-02T15:07:59.786Z,24.13
2023-03-02T15:10:27.016Z,25.05
2023-03-02T15:12:54.002Z,24.98
2023-03-02T15:15:21.127Z,23.50
2023-03-02T15:17:48.304Z,24.38
2023-03-02T15:20:16.829Z,25.13
2023-03-02T15:22:44.467Z,27.77
2023-03-02T15:25:11.754Z,25.95
2023-03-02T15:27:38.802Z,26.27
2023-03-02T15:30:06.432Z,29.95
2023-03-02T15:32:33.552Z,32.42
2023-03-02T15:35:00.705Z,30.60
2023-03-02T15:37:28.449Z,28.15
2023-03-02T15:39:56.884Z,28.05
2023-03-02T15:42:23.868Z,27.83
2023-03-02T15:44:51.085Z,28.52
2023-03-02T15:47:18.376Z,28.80
2023-03-02T15:49:45.407Z,29.25
2023-03-02T15:52:13.147Z,28.63
2023-03-02T15:54:40.813Z,29.50
2023-03-02T15:57:09.434Z,29.20
2023-03-02T15:59:37.195Z,28.13
2023-03-02T16:02:04.944Z,26.50
2023-03-02T16:04:33.848Z,28.00
2023-03-02T16:07:01.756Z,27.90
2023-03-02T16:09:29.241Z,29.23
2023-03-02T16:11:56.258Z,28.77
2023-03-02T16:14:23.865Z,27.88
2023-03-02T16:16:51.306Z,27.65
2023-03-02T16:19:19.647Z,27.65
2023-03-02T16:21:47.595Z,26.75
2023-03-02T16:24:16.208Z,27.67
2023-03-02T16:26:43.756Z,29.83
2023-03-02T16:29:12.419Z,30.90
2023-03-02T16:31:40.163Z,30.48
2023-03-02T16:34:09.072Z,27.60
2023-03-02T16:36:38.207Z,30.45
2023-03-02T16:39:06.610Z,30.05
2023-03-02T16:41:34.278Z,29.48
2023-03-02T16:44:02.324Z,31.42
2023-03-02T16:46:31.699Z,31.23
2023-03-02T16:48:59.011Z,32.90
2023-03-02T16:51:26.071Z,32.72
2023-03-02T16:53:53.510Z,31.17
2023-03-02T16:56:20.793Z,29.10
2023-03-02T16:58:47.855Z,31.08
2023-03-02T17:01:20.322Z,32.58
2023-03-02T17:03:49.541Z,32.20
2023-03-02T17:06:18.382Z,31.73
2023-03-02T17:08:45.710Z,30.15
2023-03-02T17:11:13.287Z,32.47
2023-03-02T17:13:40.405Z,34.53
2023-03-02T17:16:07.898Z,34.10
2023-03-02T17:18:35.327Z,30.67
2023-03-02T17:21:04.348Z,31.55
2023-03-02T17:23:31.571Z,33.85
2023-03-02T17:25:58.522Z,32.05
2023-03-02T17:28:25.834Z,32.20
2023-03-02T17:30:52.886Z,32.38
2023-03-02T17:33:20.070Z,33.72
2023-03-02T17:35:47.377Z,29.83
2023-03-02T17:38:15.380Z,33.63
2023-03-02T17:40:43.196Z,32.15
2023-03-02T17:43:11.815Z,33.00
2023-03-02T17:45:39.823Z,32.67
2023-03-02T17:48:07.053Z,33.53
2023-03-02T17:50:34.069Z,33.13
2023-03-02T17:53:02.287Z,35.70
2023-03-02T17:55:30.060Z,33.17
2023-03-02T17:57:57.233Z,32.70
2023-03-02T18:00:24.999Z,34.20
2023-03-02T18:02:52.804Z,35.45
2023-03-02T18:05:20.923Z,33.83
2023-03-02T18:07:48.202Z,35.35
2023-03-02T18:10:15.428Z,36.00
2023-03-02T18:12:42.879Z,35.47
2023-03-02T18:15:10.385Z,36.05
2023-03-02T18:17:37.539Z,33.65
2023-03-02T18:20:04.912Z,35.85
2023-03-02T18:22:32.018Z,33.80
2023-03-02T18:24:59.295Z,35.30
2023-03-02T18:27:26.460Z,35.50
2023-03-02T18:29:53.428Z,35.80
2023-03-02T18:32:20.593Z,35.25
2023-03-02T18:34:48.047Z,36.13
2023-03-02T18:37:15.622Z,35.17
2023-03-02T18:39:42.921Z,33.88
2023-03-02T18:42:12.487Z,34.25
2023-03-02T18:44:39.917Z,34.75
2023-03-02T18:47:07.937Z,33.28
2023-03-02T18:49:35.084Z,36.58
2023-03-02T18:52:05.906Z,33.33
2023-03-02T18:54:33.103Z,33.53
2023-03-02T18:57:01.842Z,31.65
2023-03-02T18:59:29.437Z,31.85
2023-03-02T19:01:57.667Z,33.10
2023-03-02T19:04:26.741Z,32.55
2023-03-02T19:06:56.419Z,32.17
2023-03-02T19:09:24.262Z,31.92
2023-03-02T19:11:51.276Z,31.13
2023-03-02T19:14:18.533Z,29.95
2023-03-02T19:16:46.426Z,32.70
2023-03-02T19:19:13.667Z,30.85
2023-03-02T19:21:40.697Z,29.52
2023-03-02T19:24:08.147Z,31.25
2023-03-02T19:26:35.734Z,28.73
2023-03-02T19:29:02.922Z,31.90
2023-03-02T19:31:30.727Z,34.97
2023-03-02T19:33:58.890Z,31.65
2023-03-02T19:36:26.412Z,31.08
2023-03-02T19:38:53.456Z,30.33
2023-03-02T19:41:20.910Z,30.00
2023-03-02T19:43:48.730Z,29.42
2023-03-02T19:46:17.451Z,32.05
2023-03-02T19:48:44.846Z,30.85
2023-03-02T19:51:12.241Z,33.55
2023-03-02T19:53:40.360Z,29.90
2023-03-02T19:56:12.757Z,31.48
2023-03-02T19:58:48.228Z,38.42
2023-03-02T20:01:17.345Z,30.48
2023-03-02T20:03:44.596Z,30.30
2023-03-02T20:06:11.689Z,29.48
2023-03-02T20:08:38.978Z,30.65
2023-03-02T20:11:06.535Z,29.88
2023-03-02T20:13:33.930Z,28.45
2023-03-02T20:16:01.572Z,30.15
2023-03-02T20:18:29.382Z,29.50
2023-03-02T20:20:56.484Z,29.40
2023-03-02T20:23:23.543Z,27.08
2023-03-02T20:25:51.124Z,27.15
2023-03-02T20:28:22.787Z,26.05
2023-03-02T20:31:00.664Z,24.83
2023-03-02T20:33:31.872Z,25.67
2023-03-02T20:36:00.848Z,24.27
2023-03-02T20:38:44.317Z,24.55
2023-03-02T20:41:13.958Z,22.90
2023-03-02T20:43:41.721Z,22.60
2023-03-02T20:46:10.366Z,22.92
2023-03-02T20:48:37.372Z,23.38
2023-03-02T20:51:05.233Z,23.20
2023-03-02T20:53:32.271Z,30.08
2023-03-02T20:55:59.360Z,66.07
2023-03-02T20:58:26.391Z,27.77
2023-03-02T21:00:55.993Z,25.10
2023-03-02T21:03:23.166Z,25.10
2023-03-02T21:05:50.264Z,23.50
2023-03-02T21:08:17.613Z,23.90
2023-03-02T21:10:45.017Z,23.40
2023-03-02T21:13:12.440Z,27.27
2023-03-02T21:15:41.297Z,30.55
2023-03-02T21:18:08.330Z,31.48
2023-03-02T21:20:36.010Z,30.65
2023-03-02T21:23:03.766Z,33.53
2023-03-02T21:25:31.065Z,27.45
2023-03-02T21:27:59.524Z,29.05
2023-03-02T21:30:30.013Z,31.55
2023-03-02T21:32:57.610Z,33.95
2023-03-02T21:35:25.363Z,30.52
2023-03-02T21:37:56.381Z,31.85
2023-03-02T21:40:27.136Z,25.70
2023-03-02T21:42:55.569Z,29.15
2023-03-02T21:45:24.247Z,27.75
2023-03-02T21:47:51.412Z,27.85
2023-03-02T21:50:23.948Z,26.00
2023-03-02T21:52:51.285Z,25.73
2023-03-02T21:55:18.406Z,25.20
2023-03-02T21:57:45.677Z,25.65
2023-03-02T22:00:20.837Z,25.98
2023-03-02T22:02:48.519Z,25.25
2023-03-02T22:05:15.731Z,25.30
2023-03-02T22:07:42.958Z,25.10
2023-03-02T22:10:30.878Z,23.88
2023-03-02T22:13:11.715Z,26.50
2023-03-02T22:15:39.911Z,24.50
2023-03-02T22:18:21.036Z,27.33
2023-03-02T22:20:52.205Z,25.63
2023-03-02T22:23:22.020Z,24.73
2023-03-02T22:25:51.546Z,24.50
2023-03-02T22:28:25.035Z,24.27
2023-03-02T22:30:57.110Z,25.08
2023-03-02T22:33:26.290Z,26.15
2023-03-02T22:36:00.839Z,25.38
2023-03-02T22:38:30.197Z,23.55
2023-03-02T22:40:57.962Z,25.42
2023-03-02T22:43:29.579Z,24.08
2023-03-02T22:46:21.919Z,24.00
2023-03-02T22:48:51.323Z,26.15
2023-03-02T22:51:21.538Z,23.55
2023-03-02T22:53:52.556Z,25.42
2023-03-02T22:56:39.500Z,24.58
2023-03-02T22:59:22.867Z,24.20
2023-03-02T23:01:50.563Z,24.70
2023-03-02T23:04:22.058Z,24.13
2023-03-02T23:06:51.830Z,22.40
2023-03-02T23:09:24.876Z,24.60
2023-03-02T23:11:55.885Z,24.23
2023-03-02T23:14:23.131Z,23.83
2023-03-02T23:17:00.244Z,22.75
2023-03-02T23:19:31.611Z,23.45
2023-03-02T23:21:59.606Z,23.80
2023-03-02T23:24:26.660Z,23.48
2023-03-02T23:26:53.713Z,23.65
2023-03-02T23:29:21.945Z,22.83
2023-03-02T23:31:49.789Z,22.98
2023-03-02T23:34:17.189Z,23.08
2023-03-02T23:36:44.138Z,23.52
2023-03-02T23:39:11.903Z,22.70
2023-03-02T23:41:39.422Z,23.02
2023-03-02T23:44:07.168Z,22.75
2023-03-02T23:46:34.727Z,22.42
2023-03-02T23:49:01.853Z,21.88
2023-03-02T23:51:28.926Z,21.77
2023-03-02T23:53:56.288Z,21.50
2023-03-02T23:56:23.766Z,21.73
2023-03-02T23:58:51.090Z,24.10
